GIA687 WADD-WIII
Flight info
| Callsign | GIA687 |
|---|---|
| Flight time | 1h 42m |
| Altitude | 34999 |
| Route | WADD/09 N0492F350 OKAN1B OKANG T4 FARIZ T6 KURUS KURU2L WIII/06 |
| Aircraft | MD11/M-V/N |
Departure
| Time | 2026-05-07 13:19 |
|---|---|
| Airport | Denpasar I Gusti Ngurah Rai International Airport (WADD) |
Arrival
| Time | 2026-05-07 15:01 |
|---|---|
| Airport | Soekarno-Hatta International Airport (WIII) |
| Time | Latitude | Longitude | Altitude | Speed | Heading |
|---|---|---|---|---|---|
| 2026-05-07 13:03 | -8.74518 | 115.16256 | 28 ft | 0 kts | 359° |
| 2026-05-07 13:12 | -8.74519 | 115.16256 | 28 ft | 1 kts | 359° |
| 2026-05-07 13:12 | -8.74532 | 115.16256 | 28 ft | 3 kts | 359° |
| 2026-05-07 13:12 | -8.74551 | 115.16257 | 28 ft | 3 kts | 359° |
| 2026-05-07 13:12 | -8.74571 | 115.16257 | 28 ft | 3 kts | 359° |
| 2026-05-07 13:13 | -8.74591 | 115.16258 | 28 ft | 3 kts | 351° |
| 2026-05-07 13:13 | -8.74610 | 115.16265 | 28 ft | 3 kts | 327° |
| 2026-05-07 13:13 | -8.74625 | 115.16279 | 28 ft | 3 kts | 303° |
| 2026-05-07 13:13 | -8.74634 | 115.16298 | 28 ft | 3 kts | 282° |
| 2026-05-07 13:14 | -8.74635 | 115.16313 | 28 ft | 0 kts | 269° |
| 2026-05-07 13:15 | -8.74636 | 115.16303 | 27 ft | 4 kts | 265° |
| 2026-05-07 13:15 | -8.74655 | 115.16256 | 27 ft | 11 kts | 249° |
| 2026-05-07 13:16 | -8.74671 | 115.16159 | 28 ft | 17 kts | 263° |
| 2026-05-07 13:16 | -8.74680 | 115.16020 | 28 ft | 16 kts | 259° |
| 2026-05-07 13:16 | -8.74734 | 115.15941 | 27 ft | 14 kts | 248° |
| 2026-05-07 13:16 | -8.74749 | 115.15837 | 28 ft | 16 kts | 266° |
| 2026-05-07 13:17 | -8.74751 | 115.15715 | 28 ft | 18 kts | 268° |
| 2026-05-07 13:17 | -8.74755 | 115.15578 | 28 ft | 20 kts | 268° |
| 2026-05-07 13:17 | -8.74772 | 115.15445 | 27 ft | 15 kts | 230° |
| 2026-05-07 13:17 | -8.74840 | 115.15432 | 28 ft | 11 kts | 159° |
| 2026-05-07 13:18 | -8.74871 | 115.15479 | 27 ft | 6 kts | 102° |
| 2026-05-07 13:18 | -8.74875 | 115.15504 | 27 ft | 1 kts | 93° |
| 2026-05-07 13:18 | -8.74876 | 115.15547 | 28 ft | 33 kts | 89° |
| 2026-05-07 13:18 | -8.74858 | 115.16190 | 29 ft | 148 kts | 88° |
| 2026-05-07 13:19 | -8.74819 | 115.17393 | 804 ft | 174 kts | 88° |
| 2026-05-07 13:19 | -8.74771 | 115.18578 | 2345 ft | 166 kts | 88° |
| 2026-05-07 13:19 | -8.74723 | 115.19748 | 3653 ft | 170 kts | 87° |
| 2026-05-07 13:19 | -8.74701 | 115.20990 | 4644 ft | 189 kts | 87° |
| 2026-05-07 13:20 | -8.74667 | 115.22508 | 4915 ft | 237 kts | 87° |
| 2026-05-07 13:20 | -8.74618 | 115.24260 | 5756 ft | 263 kts | 86° |
| 2026-05-07 13:20 | -8.74551 | 115.26218 | 6549 ft | 291 kts | 87° |
| 2026-05-07 13:20 | -8.74472 | 115.28324 | 7719 ft | 299 kts | 88° |
| 2026-05-07 13:21 | -8.74388 | 115.30448 | 8459 ft | 304 kts | 87° |
| 2026-05-07 13:21 | -8.74300 | 115.32563 | 8871 ft | 306 kts | 87° |
| 2026-05-07 13:21 | -8.74208 | 115.34716 | 9000 ft | 310 kts | 87° |
| 2026-05-07 13:21 | -8.74107 | 115.37028 | 9012 ft | 349 kts | 87° |
| 2026-05-07 13:22 | -8.73996 | 115.39537 | 9012 ft | 361 kts | 87° |
| 2026-05-07 13:22 | -8.73883 | 115.42091 | 9009 ft | 364 kts | 87° |
| 2026-05-07 13:22 | -8.73769 | 115.44647 | 9006 ft | 363 kts | 87° |
| 2026-05-07 13:22 | -8.73669 | 115.47202 | 9004 ft | 363 kts | 88° |
| 2026-05-07 13:23 | -8.73313 | 115.49716 | 8984 ft | 361 kts | 73° |
| 2026-05-07 13:23 | -8.72193 | 115.51974 | 8993 ft | 359 kts | 54° |
| 2026-05-07 13:23 | -8.70624 | 115.53890 | 8999 ft | 357 kts | 45° |
| 2026-05-07 13:23 | -8.68892 | 115.55688 | 8998 ft | 356 kts | 43° |
| 2026-05-07 13:24 | -8.67129 | 115.57456 | 8998 ft | 356 kts | 42° |
| 2026-05-07 13:24 | -8.65361 | 115.59219 | 8997 ft | 356 kts | 42° |
| 2026-05-07 13:24 | -8.63593 | 115.60980 | 8997 ft | 356 kts | 42° |
| 2026-05-07 13:24 | -8.61825 | 115.62739 | 8997 ft | 356 kts | 42° |
| 2026-05-07 13:25 | -8.60057 | 115.64497 | 8997 ft | 356 kts | 42° |
| 2026-05-07 13:25 | -8.58299 | 115.66259 | 8997 ft | 357 kts | 42° |
| 2026-05-07 13:25 | -8.56448 | 115.67910 | 8984 ft | 353 kts | 32° |
| 2026-05-07 13:25 | -8.54230 | 115.68898 | 8984 ft | 346 kts | 11° |
| 2026-05-07 13:26 | -8.51859 | 115.69017 | 8987 ft | 339 kts | 350° |
| 2026-05-07 13:26 | -8.49686 | 115.68286 | 8990 ft | 331 kts | 329° |
| 2026-05-07 13:26 | -8.47944 | 115.66802 | 8994 ft | 326 kts | 308° |
| 2026-05-07 13:26 | -8.46750 | 115.64855 | 9004 ft | 324 kts | 296° |
| 2026-05-07 13:27 | -8.45838 | 115.62785 | 9001 ft | 323 kts | 290° |
| 2026-05-07 13:27 | -8.45217 | 115.60645 | 8998 ft | 321 kts | 281° |
| 2026-05-07 13:27 | -8.44945 | 115.58420 | 8999 ft | 321 kts | 274° |
| 2026-05-07 13:27 | -8.44886 | 115.56152 | 8999 ft | 321 kts | 270° |
| 2026-05-07 13:28 | -8.44917 | 115.53894 | 8998 ft | 321 kts | 269° |
| 2026-05-07 13:28 | -8.44973 | 115.51631 | 8998 ft | 321 kts | 268° |
| 2026-05-07 13:28 | -8.45039 | 115.49377 | 8998 ft | 321 kts | 268° |
| 2026-05-07 13:28 | -8.45109 | 115.47122 | 8997 ft | 321 kts | 268° |
| 2026-05-07 13:29 | -8.45183 | 115.44862 | 8997 ft | 321 kts | 268° |
| 2026-05-07 13:29 | -8.45233 | 115.43363 | 8997 ft | 321 kts | 268° |
| 2026-05-07 13:29 | -8.45341 | 115.40195 | 9003 ft | 365 kts | 268° |
| 2026-05-07 13:29 | -8.45402 | 115.38461 | 9003 ft | 379 kts | 268° |
| 2026-05-07 13:30 | -8.45524 | 115.34890 | 9000 ft | 386 kts | 268° |
| 2026-05-07 13:30 | -8.45579 | 115.33063 | 8999 ft | 385 kts | 268° |
| 2026-05-07 13:30 | -8.45643 | 115.30358 | 8999 ft | 385 kts | 268° |
| 2026-05-07 13:30 | -8.45725 | 115.27655 | 8998 ft | 385 kts | 269° |
| 2026-05-07 13:31 | -8.45798 | 115.24947 | 8998 ft | 385 kts | 268° |
| 2026-05-07 13:31 | -8.45881 | 115.22244 | 8998 ft | 385 kts | 268° |
| 2026-05-07 13:31 | -8.45969 | 115.19532 | 8998 ft | 385 kts | 268° |
| 2026-05-07 13:31 | -8.46060 | 115.16853 | 9214 ft | 393 kts | 268° |
| 2026-05-07 13:32 | -8.46156 | 115.14061 | 10505 ft | 399 kts | 268° |
| 2026-05-07 13:32 | -8.46255 | 115.11252 | 12235 ft | 400 kts | 268° |
| 2026-05-07 13:32 | -8.46357 | 115.08432 | 13728 ft | 406 kts | 268° |
| 2026-05-07 13:32 | -8.46459 | 115.05551 | 14895 ft | 415 kts | 268° |
| 2026-05-07 13:33 | -8.46249 | 115.02622 | 15987 ft | 423 kts | 279° |
| 2026-05-07 13:33 | -8.45316 | 114.99787 | 17034 ft | 430 kts | 293° |
| 2026-05-07 13:33 | -8.43741 | 114.97188 | 18011 ft | 440 kts | 305° |
| 2026-05-07 13:33 | -8.41559 | 114.94975 | 18929 ft | 449 kts | 318° |
| 2026-05-07 13:34 | -8.38874 | 114.93289 | 19791 ft | 460 kts | 330° |
| 2026-05-07 13:34 | -8.33046 | 114.90496 | 21350 ft | 470 kts | 328° |
| 2026-05-07 13:34 | -8.30237 | 114.88788 | 22066 ft | 474 kts | 326° |
| 2026-05-07 13:35 | -8.27393 | 114.87063 | 22735 ft | 479 kts | 327° |
| 2026-05-07 13:35 | -8.24507 | 114.85328 | 23373 ft | 484 kts | 327° |
| 2026-05-07 13:35 | -8.21601 | 114.83593 | 23980 ft | 488 kts | 327° |
| 2026-05-07 13:35 | -8.18654 | 114.81837 | 24555 ft | 493 kts | 327° |
| 2026-05-07 13:36 | -8.15689 | 114.80072 | 25099 ft | 497 kts | 327° |
| 2026-05-07 13:36 | -8.12702 | 114.78294 | 25620 ft | 501 kts | 327° |
| 2026-05-07 13:36 | -8.09687 | 114.76499 | 26119 ft | 504 kts | 327° |
| 2026-05-07 13:36 | -8.06705 | 114.74722 | 26763 ft | 503 kts | 327° |
| 2026-05-07 13:37 | -8.03654 | 114.72903 | 27499 ft | 501 kts | 327° |
| 2026-05-07 13:37 | -8.00663 | 114.71117 | 28194 ft | 499 kts | 327° |
| 2026-05-07 13:37 | -7.97771 | 114.69274 | 28834 ft | 496 kts | 323° |
| 2026-05-07 13:37 | -7.95071 | 114.67130 | 29464 ft | 493 kts | 317° |
| 2026-05-07 13:38 | -7.92635 | 114.64716 | 30078 ft | 489 kts | 310° |
| 2026-05-07 13:38 | -7.90488 | 114.62060 | 30672 ft | 486 kts | 304° |
| 2026-05-07 13:38 | -7.88663 | 114.59205 | 31238 ft | 483 kts | 298° |
| 2026-05-07 13:38 | -7.87172 | 114.56176 | 31781 ft | 481 kts | 292° |
| 2026-05-07 13:39 | -7.86034 | 114.53018 | 32299 ft | 479 kts | 286° |
| 2026-05-07 13:39 | -7.85260 | 114.49762 | 32797 ft | 477 kts | 280° |
| 2026-05-07 13:39 | -7.84784 | 114.46452 | 33280 ft | 475 kts | 277° |
| 2026-05-07 13:39 | -7.84192 | 114.43177 | 33741 ft | 475 kts | 281° |
| 2026-05-07 13:40 | -7.83424 | 114.39935 | 34188 ft | 474 kts | 283° |
| 2026-05-07 13:40 | -7.82606 | 114.36723 | 34619 ft | 473 kts | 284° |
| 2026-05-07 13:40 | -7.81989 | 114.34352 | 34900 ft | 473 kts | 284° |
| 2026-05-07 13:41 | -7.80456 | 114.28486 | 34988 ft | 471 kts | 284° |
| 2026-05-07 13:42 | -7.78794 | 114.22125 | 34993 ft | 470 kts | 284° |
| 2026-05-07 13:42 | -7.77138 | 114.15750 | 34994 ft | 470 kts | 284° |
| 2026-05-07 13:43 | -7.75157 | 114.09476 | 34994 ft | 471 kts | 292° |
| 2026-05-07 13:43 | -7.71958 | 114.03700 | 34995 ft | 473 kts | 301° |
| 2026-05-07 13:44 | -7.68366 | 113.98151 | 34996 ft | 473 kts | 302° |
| 2026-05-07 13:44 | -7.64751 | 113.92602 | 34996 ft | 473 kts | 302° |
| 2026-05-07 13:45 | -7.61140 | 113.87060 | 34996 ft | 473 kts | 302° |
| 2026-05-07 13:45 | -7.57530 | 113.81522 | 34996 ft | 473 kts | 302° |
| 2026-05-07 13:46 | -7.53922 | 113.75982 | 34996 ft | 473 kts | 302° |
| 2026-05-07 13:46 | -7.50310 | 113.70439 | 34996 ft | 473 kts | 302° |
| 2026-05-07 13:47 | -7.46702 | 113.64909 | 34996 ft | 473 kts | 302° |
| 2026-05-07 13:47 | -7.43089 | 113.59372 | 34996 ft | 471 kts | 302° |
| 2026-05-07 13:48 | -7.39523 | 113.53909 | 34996 ft | 464 kts | 302° |
| 2026-05-07 13:48 | -7.35966 | 113.48458 | 34996 ft | 466 kts | 302° |
| 2026-05-07 13:49 | -7.32433 | 113.43046 | 34996 ft | 465 kts | 302° |
| 2026-05-07 13:49 | -7.28867 | 113.37588 | 34996 ft | 465 kts | 302° |
| 2026-05-07 13:50 | -7.25304 | 113.32137 | 34996 ft | 465 kts | 302° |
| 2026-05-07 13:50 | -7.21740 | 113.26688 | 34996 ft | 465 kts | 302° |
| 2026-05-07 13:51 | -7.18198 | 113.21268 | 34996 ft | 465 kts | 302° |
| 2026-05-07 13:51 | -7.14634 | 113.15818 | 34996 ft | 465 kts | 302° |
| 2026-05-07 13:52 | -7.11083 | 113.10391 | 34996 ft | 465 kts | 302° |
| 2026-05-07 13:52 | -7.07529 | 113.04963 | 34996 ft | 465 kts | 302° |
| 2026-05-07 13:53 | -7.03974 | 112.99535 | 34996 ft | 465 kts | 302° |
| 2026-05-07 13:53 | -7.00413 | 112.94098 | 34996 ft | 465 kts | 302° |
| 2026-05-07 13:54 | -6.96858 | 112.88668 | 34996 ft | 465 kts | 302° |
| 2026-05-07 13:54 | -6.93296 | 112.83233 | 34996 ft | 465 kts | 302° |
| 2026-05-07 13:55 | -6.89735 | 112.77802 | 34996 ft | 464 kts | 302° |
| 2026-05-07 13:55 | -6.86177 | 112.72378 | 34996 ft | 464 kts | 302° |
| 2026-05-07 13:56 | -6.82614 | 112.66947 | 34996 ft | 464 kts | 302° |
| 2026-05-07 13:56 | -6.79057 | 112.61521 | 34996 ft | 464 kts | 302° |
| 2026-05-07 13:57 | -6.75496 | 112.56096 | 34996 ft | 464 kts | 302° |
| 2026-05-07 13:57 | -6.71939 | 112.50679 | 34996 ft | 464 kts | 302° |
| 2026-05-07 13:58 | -6.68378 | 112.45256 | 34996 ft | 464 kts | 302° |
| 2026-05-07 13:58 | -6.64821 | 112.39842 | 34996 ft | 464 kts | 302° |
| 2026-05-07 13:59 | -6.61260 | 112.34417 | 34996 ft | 464 kts | 302° |
| 2026-05-07 13:59 | -6.57702 | 112.29000 | 34996 ft | 464 kts | 302° |
| 2026-05-07 14:00 | -6.54158 | 112.23608 | 34996 ft | 464 kts | 302° |
| 2026-05-07 14:00 | -6.50587 | 112.18175 | 34996 ft | 464 kts | 302° |
| 2026-05-07 14:01 | -6.47044 | 112.12784 | 34996 ft | 464 kts | 302° |
| 2026-05-07 14:01 | -6.43506 | 112.07396 | 34996 ft | 464 kts | 302° |
| 2026-05-07 14:02 | -6.39947 | 112.01976 | 34996 ft | 463 kts | 302° |
| 2026-05-07 14:02 | -6.36393 | 111.96561 | 34996 ft | 463 kts | 302° |
| 2026-05-07 14:03 | -6.32846 | 111.91147 | 34996 ft | 463 kts | 302° |
| 2026-05-07 14:03 | -6.29299 | 111.85736 | 34996 ft | 463 kts | 302° |
| 2026-05-07 14:04 | -6.25716 | 111.80353 | 34996 ft | 463 kts | 302° |
| 2026-05-07 14:04 | -6.22125 | 111.74976 | 34996 ft | 463 kts | 302° |
| 2026-05-07 14:05 | -6.18559 | 111.69585 | 34996 ft | 463 kts | 302° |
| 2026-05-07 14:05 | -6.14997 | 111.64189 | 34996 ft | 463 kts | 302° |
| 2026-05-07 14:06 | -6.11438 | 111.58794 | 34996 ft | 463 kts | 302° |
| 2026-05-07 14:06 | -6.07881 | 111.53402 | 34996 ft | 463 kts | 302° |
| 2026-05-07 14:07 | -6.04328 | 111.48008 | 34996 ft | 463 kts | 302° |
| 2026-05-07 14:07 | -6.00773 | 111.42614 | 34996 ft | 463 kts | 302° |
| 2026-05-07 14:08 | -5.97220 | 111.37221 | 34996 ft | 463 kts | 302° |
| 2026-05-07 14:08 | -5.93697 | 111.31864 | 34996 ft | 463 kts | 302° |
| 2026-05-07 14:09 | -5.90246 | 111.26419 | 34994 ft | 461 kts | 296° |
| 2026-05-07 14:09 | -5.88237 | 111.20348 | 34995 ft | 459 kts | 279° |
| 2026-05-07 14:10 | -5.88032 | 111.13958 | 34996 ft | 459 kts | 266° |
| 2026-05-07 14:10 | -5.88692 | 111.07591 | 34996 ft | 459 kts | 264° |
| 2026-05-07 14:11 | -5.89409 | 111.01222 | 34996 ft | 458 kts | 264° |
| 2026-05-07 14:11 | -5.90120 | 110.94865 | 34996 ft | 458 kts | 264° |
| 2026-05-07 14:12 | -5.90829 | 110.88514 | 34996 ft | 458 kts | 264° |
| 2026-05-07 14:12 | -5.91543 | 110.82150 | 34996 ft | 458 kts | 264° |
| 2026-05-07 14:13 | -5.92254 | 110.75790 | 34996 ft | 458 kts | 264° |
| 2026-05-07 14:13 | -5.92849 | 110.70461 | 34996 ft | 458 kts | 264° |
| 2026-05-07 14:14 | -5.93560 | 110.64096 | 34996 ft | 458 kts | 264° |
| 2026-05-07 14:14 | -5.94273 | 110.57737 | 34996 ft | 458 kts | 264° |
| 2026-05-07 14:15 | -5.94990 | 110.51373 | 34996 ft | 458 kts | 264° |
| 2026-05-07 14:15 | -5.95713 | 110.45008 | 34996 ft | 458 kts | 264° |
| 2026-05-07 14:16 | -5.96384 | 110.38681 | 34996 ft | 458 kts | 265° |
| 2026-05-07 14:16 | -5.96461 | 110.32283 | 34996 ft | 458 kts | 271° |
| 2026-05-07 14:17 | -5.96395 | 110.25878 | 34996 ft | 458 kts | 270° |
| 2026-05-07 14:17 | -5.96375 | 110.19476 | 34996 ft | 458 kts | 270° |
| 2026-05-07 14:18 | -5.96368 | 110.13072 | 34996 ft | 458 kts | 270° |
| 2026-05-07 14:18 | -5.96365 | 110.06674 | 34996 ft | 458 kts | 270° |
| 2026-05-07 14:19 | -5.96365 | 110.00271 | 34996 ft | 458 kts | 270° |
| 2026-05-07 14:19 | -5.96364 | 109.93868 | 34996 ft | 458 kts | 270° |
| 2026-05-07 14:20 | -5.96360 | 109.87469 | 34996 ft | 458 kts | 270° |
| 2026-05-07 14:20 | -5.96356 | 109.81069 | 34996 ft | 458 kts | 270° |
| 2026-05-07 14:21 | -5.96351 | 109.74667 | 34996 ft | 458 kts | 270° |
| 2026-05-07 14:21 | -5.96347 | 109.68289 | 34996 ft | 458 kts | 270° |
| 2026-05-07 14:22 | -5.96343 | 109.61880 | 34996 ft | 458 kts | 270° |
| 2026-05-07 14:22 | -5.96337 | 109.55503 | 34996 ft | 458 kts | 270° |
| 2026-05-07 14:23 | -5.96330 | 109.49030 | 34996 ft | 458 kts | 270° |
| 2026-05-07 14:23 | -5.96321 | 109.42574 | 34996 ft | 458 kts | 270° |
| 2026-05-07 14:24 | -5.96313 | 109.36172 | 34996 ft | 458 kts | 270° |
| 2026-05-07 14:24 | -5.96307 | 109.29812 | 34996 ft | 458 kts | 270° |
| 2026-05-07 14:25 | -5.96297 | 109.23400 | 34996 ft | 458 kts | 270° |
| 2026-05-07 14:25 | -5.96287 | 109.16986 | 34996 ft | 458 kts | 270° |
| 2026-05-07 14:26 | -5.96276 | 109.10621 | 34996 ft | 458 kts | 270° |
| 2026-05-07 14:26 | -5.96265 | 109.04223 | 34996 ft | 458 kts | 270° |
| 2026-05-07 14:27 | -5.96256 | 108.97821 | 34996 ft | 458 kts | 270° |
| 2026-05-07 14:27 | -5.96246 | 108.91442 | 34996 ft | 458 kts | 270° |
| 2026-05-07 14:28 | -5.96234 | 108.85018 | 34996 ft | 458 kts | 270° |
| 2026-05-07 14:28 | -5.96222 | 108.78618 | 34996 ft | 458 kts | 270° |
| 2026-05-07 14:29 | -5.96211 | 108.72213 | 34996 ft | 458 kts | 270° |
| 2026-05-07 14:29 | -5.96202 | 108.65816 | 34996 ft | 458 kts | 270° |
| 2026-05-07 14:30 | -5.96198 | 108.59404 | 34996 ft | 458 kts | 270° |
| 2026-05-07 14:30 | -5.96193 | 108.53002 | 34996 ft | 458 kts | 270° |
| 2026-05-07 14:31 | -5.96161 | 108.46601 | 34996 ft | 458 kts | 270° |
| 2026-05-07 14:31 | -5.96133 | 108.40239 | 34996 ft | 458 kts | 270° |
| 2026-05-07 14:32 | -5.96125 | 108.33762 | 34996 ft | 458 kts | 270° |
| 2026-05-07 14:32 | -5.96122 | 108.27354 | 34996 ft | 458 kts | 270° |
| 2026-05-07 14:33 | -5.96122 | 108.20940 | 34996 ft | 458 kts | 270° |
| 2026-05-07 14:33 | -5.96125 | 108.14560 | 34996 ft | 458 kts | 270° |
| 2026-05-07 14:33 | -5.96127 | 108.11397 | 34995 ft | 444 kts | 270° |
| 2026-05-07 14:34 | -5.96131 | 108.08360 | 34993 ft | 426 kts | 270° |
| 2026-05-07 14:34 | -5.96134 | 108.05434 | 34993 ft | 411 kts | 270° |
| 2026-05-07 14:34 | -5.96128 | 108.02570 | 34994 ft | 411 kts | 270° |
| 2026-05-07 14:35 | -5.96110 | 107.96713 | 34996 ft | 425 kts | 270° |
| 2026-05-07 14:35 | -5.96101 | 107.93785 | 34994 ft | 412 kts | 270° |
| 2026-05-07 14:35 | -5.96098 | 107.90947 | 34784 ft | 402 kts | 270° |
| 2026-05-07 14:35 | -5.96099 | 107.88124 | 33997 ft | 407 kts | 270° |
| 2026-05-07 14:36 | -5.96102 | 107.85261 | 33155 ft | 413 kts | 270° |
| 2026-05-07 14:36 | -5.96106 | 107.82367 | 32454 ft | 414 kts | 270° |
| 2026-05-07 14:36 | -5.96111 | 107.79510 | 32274 ft | 402 kts | 270° |
| 2026-05-07 14:36 | -5.96117 | 107.76750 | 32200 ft | 389 kts | 270° |
| 2026-05-07 14:37 | -5.96124 | 107.74082 | 32132 ft | 375 kts | 270° |
| 2026-05-07 14:37 | -5.96125 | 107.69045 | 31997 ft | 350 kts | 270° |
| 2026-05-07 14:37 | -5.96117 | 107.66641 | 31902 ft | 338 kts | 270° |
| 2026-05-07 14:38 | -5.96113 | 107.64301 | 31566 ft | 334 kts | 270° |
| 2026-05-07 14:38 | -5.96105 | 107.61958 | 31094 ft | 334 kts | 270° |
| 2026-05-07 14:38 | -5.96101 | 107.59633 | 30686 ft | 332 kts | 270° |
| 2026-05-07 14:38 | -5.96101 | 107.57328 | 30306 ft | 329 kts | 270° |
| 2026-05-07 14:39 | -5.96101 | 107.55030 | 29912 ft | 327 kts | 270° |
| 2026-05-07 14:39 | -5.96104 | 107.52752 | 29517 ft | 324 kts | 270° |
| 2026-05-07 14:39 | -5.96107 | 107.50495 | 29106 ft | 322 kts | 270° |
| 2026-05-07 14:39 | -5.96110 | 107.48284 | 28693 ft | 320 kts | 270° |
| 2026-05-07 14:40 | -5.96114 | 107.46060 | 28281 ft | 317 kts | 270° |
| 2026-05-07 14:40 | -5.96118 | 107.43839 | 27863 ft | 315 kts | 270° |
| 2026-05-07 14:40 | -5.96123 | 107.41642 | 27567 ft | 308 kts | 270° |
| 2026-05-07 14:40 | -5.96128 | 107.39562 | 27491 ft | 295 kts | 270° |
| 2026-05-07 14:41 | -5.96129 | 107.37551 | 27389 ft | 282 kts | 270° |
| 2026-05-07 14:41 | -5.96124 | 107.35598 | 27057 ft | 277 kts | 270° |
| 2026-05-07 14:41 | -5.96118 | 107.33661 | 26576 ft | 277 kts | 270° |
| 2026-05-07 14:41 | -5.96118 | 107.31730 | 26153 ft | 276 kts | 270° |
| 2026-05-07 14:42 | -5.96108 | 107.29807 | 25749 ft | 273 kts | 270° |
| 2026-05-07 14:42 | -5.96102 | 107.27903 | 25341 ft | 271 kts | 270° |
| 2026-05-07 14:42 | -5.96097 | 107.26014 | 24933 ft | 269 kts | 270° |
| 2026-05-07 14:42 | -5.96094 | 107.24140 | 24528 ft | 267 kts | 270° |
| 2026-05-07 14:43 | -5.96093 | 107.22277 | 24124 ft | 265 kts | 270° |
| 2026-05-07 14:43 | -5.96091 | 107.20430 | 23721 ft | 264 kts | 270° |
| 2026-05-07 14:43 | -5.96091 | 107.18594 | 23319 ft | 262 kts | 270° |
| 2026-05-07 14:43 | -5.96091 | 107.16774 | 22918 ft | 260 kts | 270° |
| 2026-05-07 14:44 | -5.96092 | 107.14989 | 22525 ft | 258 kts | 270° |
| 2026-05-07 14:44 | -5.96093 | 107.13166 | 22121 ft | 256 kts | 270° |
| 2026-05-07 14:44 | -5.96094 | 107.11408 | 21729 ft | 254 kts | 270° |
| 2026-05-07 14:44 | -5.96091 | 107.09613 | 21329 ft | 253 kts | 270° |
| 2026-05-07 14:45 | -5.96086 | 107.07872 | 20938 ft | 251 kts | 270° |
| 2026-05-07 14:45 | -5.96076 | 107.06121 | 20544 ft | 249 kts | 270° |
| 2026-05-07 14:45 | -5.96078 | 107.04381 | 20150 ft | 247 kts | 270° |
| 2026-05-07 14:45 | -5.96068 | 107.02655 | 19758 ft | 246 kts | 270° |
| 2026-05-07 14:46 | -5.96060 | 107.00966 | 19372 ft | 244 kts | 270° |
| 2026-05-07 14:46 | -5.96054 | 106.99267 | 18979 ft | 243 kts | 270° |
| 2026-05-07 14:46 | -5.96049 | 106.97575 | 18589 ft | 241 kts | 270° |
| 2026-05-07 14:46 | -5.96046 | 106.95892 | 18199 ft | 240 kts | 270° |
| 2026-05-07 14:47 | -5.96043 | 106.94225 | 17812 ft | 238 kts | 270° |
| 2026-05-07 14:47 | -5.96041 | 106.92563 | 17426 ft | 237 kts | 270° |
| 2026-05-07 14:47 | -5.96040 | 106.90914 | 17041 ft | 235 kts | 270° |
| 2026-05-07 14:47 | -5.96039 | 106.89277 | 16658 ft | 234 kts | 270° |
| 2026-05-07 14:48 | -5.96038 | 106.87647 | 16276 ft | 233 kts | 270° |
| 2026-05-07 14:48 | -5.96036 | 106.86027 | 15894 ft | 231 kts | 270° |
| 2026-05-07 14:48 | -5.96033 | 106.84959 | 15633 ft | 231 kts | 270° |
| 2026-05-07 14:48 | -5.96023 | 106.82794 | 15063 ft | 230 kts | 270° |
| 2026-05-07 14:49 | -5.96016 | 106.81242 | 14983 ft | 215 kts | 270° |
| 2026-05-07 14:49 | -5.96019 | 106.80233 | 14984 ft | 215 kts | 269° |
| 2026-05-07 14:49 | -5.96238 | 106.78759 | 14981 ft | 217 kts | 257° |
| 2026-05-07 14:49 | -5.96719 | 106.77307 | 14803 ft | 216 kts | 252° |
| 2026-05-07 14:50 | -5.97255 | 106.75887 | 14340 ft | 220 kts | 251° |
| 2026-05-07 14:50 | -5.97829 | 106.74413 | 13451 ft | 235 kts | 250° |
| 2026-05-07 14:50 | -5.98456 | 106.72830 | 12475 ft | 251 kts | 250° |
| 2026-05-07 14:50 | -5.99119 | 106.71177 | 11496 ft | 265 kts | 250° |
| 2026-05-07 14:51 | -5.99828 | 106.69419 | 10499 ft | 277 kts | 249° |
| 2026-05-07 14:51 | -6.00568 | 106.67593 | 9500 ft | 287 kts | 249° |
| 2026-05-07 14:51 | -6.01332 | 106.65714 | 8499 ft | 294 kts | 249° |
| 2026-05-07 14:51 | -6.02109 | 106.63794 | 7498 ft | 299 kts | 249° |
| 2026-05-07 14:52 | -6.02896 | 106.61841 | 6496 ft | 303 kts | 249° |
| 2026-05-07 14:52 | -6.03691 | 106.59865 | 5493 ft | 307 kts | 250° |
| 2026-05-07 14:52 | -6.04501 | 106.57866 | 4491 ft | 311 kts | 249° |
| 2026-05-07 14:52 | -6.05310 | 106.55855 | 3697 ft | 308 kts | 249° |
| 2026-05-07 14:53 | -6.06095 | 106.53914 | 3392 ft | 289 kts | 248° |
| 2026-05-07 14:53 | -6.06825 | 106.52112 | 3229 ft | 267 kts | 248° |
| 2026-05-07 14:53 | -6.07498 | 106.50454 | 3107 ft | 246 kts | 248° |
| 2026-05-07 14:53 | -6.08115 | 106.48933 | 3009 ft | 224 kts | 248° |
| 2026-05-07 14:54 | -6.08673 | 106.47551 | 2980 ft | 206 kts | 248° |
| 2026-05-07 14:54 | -6.09201 | 106.46241 | 2980 ft | 199 kts | 248° |
| 2026-05-07 14:54 | -6.09715 | 106.44951 | 2983 ft | 200 kts | 248° |
| 2026-05-07 14:54 | -6.10258 | 106.43684 | 2977 ft | 200 kts | 242° |
| 2026-05-07 14:55 | -6.11248 | 106.42742 | 2953 ft | 199 kts | 209° |
| 2026-05-07 14:55 | -6.12608 | 106.42481 | 2996 ft | 200 kts | 183° |
| 2026-05-07 14:55 | -6.13969 | 106.42569 | 2928 ft | 192 kts | 174° |
| 2026-05-07 14:55 | -6.15300 | 106.42743 | 2481 ft | 196 kts | 172° |
| 2026-05-07 14:56 | -6.16585 | 106.43196 | 2026 ft | 197 kts | 146° |
| 2026-05-07 14:56 | -6.17353 | 106.44281 | 1975 ft | 193 kts | 114° |
| 2026-05-07 14:56 | -6.17687 | 106.45604 | 2018 ft | 197 kts | 102° |
| 2026-05-07 14:56 | -6.17914 | 106.46963 | 2015 ft | 197 kts | 98° |
| 2026-05-07 14:57 | -6.17997 | 106.48332 | 2000 ft | 197 kts | 87° |
| 2026-05-07 14:57 | -6.17689 | 106.49674 | 2008 ft | 197 kts | 73° |
| 2026-05-07 14:57 | -6.17201 | 106.50959 | 2007 ft | 197 kts | 68° |
| 2026-05-07 14:57 | -6.16706 | 106.52243 | 2004 ft | 197 kts | 69° |
| 2026-05-07 14:58 | -6.16214 | 106.53505 | 2001 ft | 197 kts | 68° |
| 2026-05-07 14:58 | -6.15709 | 106.54789 | 1929 ft | 199 kts | 68° |
| 2026-05-07 14:58 | -6.15200 | 106.56080 | 1670 ft | 196 kts | 68° |
| 2026-05-07 14:58 | -6.14699 | 106.57346 | 1405 ft | 195 kts | 68° |
| 2026-05-07 14:59 | -6.14196 | 106.58612 | 1146 ft | 194 kts | 68° |
| 2026-05-07 14:59 | -6.13560 | 106.59823 | 789 ft | 199 kts | 58° |
| 2026-05-07 14:59 | -6.12880 | 106.60981 | 689 ft | 190 kts | 61° |
| 2026-05-07 14:59 | -6.12283 | 106.62183 | 378 ft | 192 kts | 65° |
| 2026-05-07 15:00 | -6.11815 | 106.63399 | 321 ft | 180 kts | 69° |
| 2026-05-07 15:00 | -6.11374 | 106.64531 | 97 ft | 167 kts | 68° |
| 2026-05-07 15:00 | -6.10779 | 106.66025 | 48 ft | 64 kts | 68° |
| 2026-05-07 15:01 | -6.10682 | 106.66263 | 48 ft | 16 kts | 67° |
| 2026-05-07 15:01 | -6.10654 | 106.66332 | 48 ft | 11 kts | 69° |